• Join FlightAware (Why Join?)
  • Login
  • US Flag GB Flag 
18:21 EDT


 

Airport Tracker/Info


-or-


 

Live Flight TrackerFlight Track Log ✈ PDT4170 ✈ 20-Jun-2013 ✈ KTRI - KCLT

Flight Track Log - Related Links

Times and Time Zones

All times are in EDT time to prevent confusion due to time zone crossing. See the PDT4170 flight status page for this flight to view local times or setup timezone preferences in your user account.

Time Position Orientation Groundspeed Altitude Reporting Facility
EDT Latitude Longitude Course Direction KTS MPH feet Rate Location/Type
14:38 36.4089 -82.4650 158° South 154 177 4,400  Level Atlanta Center
14:39 36.3656 -82.2780 99° East  Level Estimated
14:39 36.3692 -82.4581 172° South 161 185 5,600  Level Atlanta Center
14:40 36.3290 -82.2349 90° East  Level Estimated
14:40 36.3333 -82.4228 142° Southeast 157 181 7,100  Level Atlanta Center
14:41 36.2924 -82.1919 158° South  Level Estimated
14:41 36.3017 -82.3822 134° Southeast 164 189 8,500  Level Atlanta Center
14:42 36.3250 -82.1442 50° Northeast  Level FlightAware Approximate
14:42 36.2678 -82.3442 138° Southeast 164 189 10,000  Level Atlanta Center
14:43 36.2784 -82.0932 158° South  Level Estimated
14:43 36.2236 -82.3219 158° South 164 189 11,000  Level Atlanta Center
14:44 36.1872 -82.2689 130° Southeast 184 212 11,100  Climbing Atlanta Center
14:45 36.1489 -82.2131 130° Southeast 207 238 11,000 -60 Descending Atlanta Center
14:46 36.1044 -82.1575 135° Southeast 227 261 11,000  Level Atlanta Center
14:47 36.0533 -82.0997 138° Southeast 234 269 11,000  Level Atlanta Center
14:48 36.0067 -82.0442 136° Southeast 240 276 11,000  Level Atlanta Center
14:49 35.9578 -81.9892 138° Southeast 240 276 11,000  Level Atlanta Center
14:50 35.9067 -81.9289 136° Southeast 240 276 11,000  Level Atlanta Center
14:51 35.8514 -81.8661 137° Southeast 240 276 11,000  Level Atlanta Center
14:52 35.8022 -81.8086 137° Southeast 240 276 11,000  Level Atlanta Center
14:53 35.7511 -81.7511 138° Southeast 240 276 11,000  Level Atlanta Center
14:53 35.7150 -81.7086 136° Southeast 251 289 11,000  Level Atlanta Center
14:55 35.6489 -81.6364 138° Southeast 240 276 11,000  Level Atlanta Center
14:56 35.5978 -81.5792 138° Southeast 245 282 11,000  Level Atlanta Center
14:57 35.5547 -81.5167 130° Southeast 245 282 11,000  Level Atlanta Center
14:58 35.5156 -81.4439 123° Southeast 250 288 11,000  Level Atlanta Center
14:59 35.4703 -81.3792 131° Southeast 250 288 11,000  Level Atlanta Center
15:00 35.4231 -81.3194 134° Southeast 245 282 11,000 -540 Level Atlanta Center
15:01 35.3733 -81.2369 126° Southeast 266 306 9,900 -960 Descending Atlanta Center
15:02 35.3322 -81.1772 130° Southeast 261 300 9,100 -540 Descending Atlanta Center
15:03 35.2889 -81.1050 126° Southeast 261 300 9,000 -240 Descending Atlanta Center
15:04 35.2214 -81.0719 158° South 246 283 8,700 -660 Descending Atlanta Center
15:05 35.1419 -81.0669 177° South 245 282 7,600 -1,020 Descending Atlanta Center
15:06 35.0769 -81.0592 174° South 237 273 6,600 -840 Descending Atlanta Center
15:07 35.0164 -81.0511 174° South 231 266 6,000 -420 Descending Atlanta Center
15:08 34.9492 -81.0383 171° South 229 264 5,800 -540 Descending Atlanta Center
15:09 34.9064 -80.9969 142° Southeast 220 253 5,000 -420 Descending Atlanta Center
15:10 34.9472 -80.9525 42° Northeast 221 254 5,000 -420 Level Atlanta Center
15:11 35.0203 -80.9522 360° North 232 267 4,200 -720 Descending Atlanta Center